sensor_id;sensor_type;location;lat;lon;timestamp;temperature;humidity
3051;DHT22;1535;51.098;6.414;2022-09-17T00:01:25;10.00;99.90
3051;DHT22;1535;51.098;6.414;2022-09-17T00:03:56;10.10;99.90
3051;DHT22;1535;51.098;6.414;2022-09-17T00:06:29;10.10;99.90
3051;DHT22;1535;51.098;6.414;2022-09-17T00:08:56;10.00;99.90
3051;DHT22;1535;51.098;6.414;2022-09-17T00:11:25;10.00;99.90
3051;DHT22;1535;51.098;6.414;2022-09-17T00:13:53;10.00;99.90
3051;DHT22;1535;51.098;6.414;2022-09-17T00:16:24;9.90;99.90
3051;DHT22;1535;51.098;6.414;2022-09-17T00:18:52;9.90;99.90
3051;DHT22;1535;51.098;6.414;2022-09-17T00:21:20;10.00;99.90
3051;DHT22;1535;51.098;6.414;2022-09-17T00:23:52;9.90;99.90
3051;DHT22;1535;51.098;6.414;2022-09-17T00:26:19;9.90;99.90
3051;DHT22;1535;51.098;6.414;2022-09-17T00:28:48;9.90;99.90
3051;DHT22;1535;51.098;6.414;2022-09-17T00:31:15;9.90;99.90
3051;DHT22;1535;51.098;6.414;2022-09-17T00:33:43;9.80;99.90
3051;DHT22;1535;51.098;6.414;2022-09-17T00:36:09;9.80;99.90
3051;DHT22;1535;51.098;6.414;2022-09-17T00:38:39;9.80;99.90
3051;DHT22;1535;51.098;6.414;2022-09-17T00:41:09;9.70;99.90
3051;DHT22;1535;51.098;6.414;2022-09-17T00:43:39;9.70;99.90
3051;DHT22;1535;51.098;6.414;2022-09-17T00:46:14;9.70;99.90
3051;DHT22;1535;51.098;6.414;2022-09-17T00:48:44;9.70;99.90
3051;DHT22;1535;51.098;6.414;2022-09-17T00:51:14;9.60;99.90
3051;DHT22;1535;51.098;6.414;2022-09-17T00:53:45;9.60;99.90
3051;DHT22;1535;51.098;6.414;2022-09-17T00:56:21;9.60;99.90
3051;DHT22;1535;51.098;6.414;2022-09-17T00:58:49;9.70;99.90
3051;DHT22;1535;51.098;6.414;2022-09-17T01:01:17;9.60;99.90
3051;DHT22;1535;51.098;6.414;2022-09-17T01:03:44;9.70;99.90
3051;DHT22;1535;51.098;6.414;2022-09-17T01:06:16;9.70;99.90
3051;DHT22;1535;51.098;6.414;2022-09-17T01:08:57;9.70;99.90
3051;DHT22;1535;51.098;6.414;2022-09-17T01:11:36;9.60;99.90
3051;DHT22;1535;51.098;6.414;2022-09-17T01:14:20;9.60;99.90
3051;DHT22;1535;51.098;6.414;2022-09-17T01:16:55;9.50;99.90
3051;DHT22;1535;51.098;6.414;2022-09-17T01:19:47;9.50;99.90
3051;DHT22;1535;51.098;6.414;2022-09-17T01:22:18;9.50;99.90
3051;DHT22;1535;51.098;6.414;2022-09-17T01:25:06;9.50;99.90
3051;DHT22;1535;51.098;6.414;2022-09-17T01:28:02;9.50;99.90
3051;DHT22;1535;51.098;6.414;2022-09-17T01:33:34;9.50;99.90
3051;DHT22;1535;51.098;6.414;2022-09-17T01:36:19;9.40;99.90
3051;DHT22;1535;51.098;6.414;2022-09-17T01:38:53;9.40;99.90
3051;DHT22;1535;51.098;6.414;2022-09-17T01:41:29;9.40;99.90
3051;DHT22;1535;51.098;6.414;2022-09-17T01:44:01;9.40;99.90
3051;DHT22;1535;51.098;6.414;2022-09-17T01:46:36;9.50;99.90
3051;DHT22;1535;51.098;6.414;2022-09-17T01:49:06;9.50;99.90
3051;DHT22;1535;51.098;6.414;2022-09-17T01:51:36;9.50;99.90
3051;DHT22;1535;51.098;6.414;2022-09-17T01:54:08;9.50;99.90
3051;DHT22;1535;51.098;6.414;2022-09-17T01:56:39;9.50;99.90
3051;DHT22;1535;51.098;6.414;2022-09-17T01:59:12;9.50;99.90
3051;DHT22;1535;51.098;6.414;2022-09-17T02:01:45;9.50;99.90
3051;DHT22;1535;51.098;6.414;2022-09-17T02:04:18;9.50;99.90
3051;DHT22;1535;51.098;6.414;2022-09-17T02:06:50;9.50;99.90
3051;DHT22;1535;51.098;6.414;2022-09-17T02:09:20;9.50;99.90
3051;DHT22;1535;51.098;6.414;2022-09-17T02:11:51;9.40;99.90
3051;DHT22;1535;51.098;6.414;2022-09-17T02:14:23;9.40;99.90
3051;DHT22;1535;51.098;6.414;2022-09-17T02:16:58;9.40;99.90
3051;DHT22;1535;51.098;6.414;2022-09-17T02:19:27;9.30;99.90
3051;DHT22;1535;51.098;6.414;2022-09-17T02:21:59;9.30;99.90
3051;DHT22;1535;51.098;6.414;2022-09-17T02:24:32;9.40;99.90
3051;DHT22;1535;51.098;6.414;2022-09-17T02:27:04;9.50;99.90
3051;DHT22;1535;51.098;6.414;2022-09-17T02:29:34;9.50;99.90
3051;DHT22;1535;51.098;6.414;2022-09-17T02:32:04;9.50;99.90
3051;DHT22;1535;51.098;6.414;2022-09-17T02:34:31;9.50;99.90
3051;DHT22;1535;51.098;6.414;2022-09-17T02:36:59;9.50;99.90
3051;DHT22;1535;51.098;6.414;2022-09-17T02:39:27;9.60;99.90
3051;DHT22;1535;51.098;6.414;2022-09-17T02:42:00;9.60;99.90
3051;DHT22;1535;51.098;6.414;2022-09-17T02:44:36;9.60;99.90
3051;DHT22;1535;51.098;6.414;2022-09-17T02:50:15;9.70;99.90
3051;DHT22;1535;51.098;6.414;2022-09-17T02:52:54;9.70;99.90
3051;DHT22;1535;51.098;6.414;2022-09-17T02:55:29;9.70;99.90
3051;DHT22;1535;51.098;6.414;2022-09-17T02:58:05;9.80;99.90
3051;DHT22;1535;51.098;6.414;2022-09-17T03:00:35;9.80;99.90
3051;DHT22;1535;51.098;6.414;2022-09-17T03:03:08;9.80;99.90
3051;DHT22;1535;51.098;6.414;2022-09-17T03:05:38;9.80;99.90
3051;DHT22;1535;51.098;6.414;2022-09-17T03:08:09;9.90;99.90
3051;DHT22;1535;51.098;6.414;2022-09-17T03:10:38;9.90;99.90
3051;DHT22;1535;51.098;6.414;2022-09-17T03:13:05;9.90;99.90
3051;DHT22;1535;51.098;6.414;2022-09-17T03:15:33;9.90;99.90
3051;DHT22;1535;51.098;6.414;2022-09-17T03:18:00;9.90;99.90
3051;DHT22;1535;51.098;6.414;2022-09-17T03:20:30;9.80;99.90
3051;DHT22;1535;51.098;6.414;2022-09-17T03:22:57;9.70;99.90
3051;DHT22;1535;51.098;6.414;2022-09-17T03:25:26;9.60;99.90
3051;DHT22;1535;51.098;6.414;2022-09-17T03:27:52;9.60;99.90
3051;DHT22;1535;51.098;6.414;2022-09-17T03:30:19;9.50;99.90
3051;DHT22;1535;51.098;6.414;2022-09-17T03:32:46;9.50;99.90
3051;DHT22;1535;51.098;6.414;2022-09-17T03:35:13;9.40;99.90
3051;DHT22;1535;51.098;6.414;2022-09-17T03:37:41;9.40;99.90
3051;DHT22;1535;51.098;6.414;2022-09-17T03:40:09;9.40;99.90
3051;DHT22;1535;51.098;6.414;2022-09-17T03:42:37;9.40;99.90
3051;DHT22;1535;51.098;6.414;2022-09-17T03:45:05;9.40;99.90
3051;DHT22;1535;51.098;6.414;2022-09-17T03:47:33;9.50;99.90
3051;DHT22;1535;51.098;6.414;2022-09-17T03:50:01;9.40;99.90
3051;DHT22;1535;51.098;6.414;2022-09-17T03:52:28;9.40;99.90
3051;DHT22;1535;51.098;6.414;2022-09-17T03:54:56;9.40;99.90
3051;DHT22;1535;51.098;6.414;2022-09-17T03:57:23;9.40;99.90
3051;DHT22;1535;51.098;6.414;2022-09-17T03:59:50;9.30;99.90
3051;DHT22;1535;51.098;6.414;2022-09-17T04:02:17;9.30;99.90
3051;DHT22;1535;51.098;6.414;2022-09-17T04:04:44;9.20;99.90
3051;DHT22;1535;51.098;6.414;2022-09-17T04:07:11;9.20;99.90
3051;DHT22;1535;51.098;6.414;2022-09-17T04:09:37;9.20;99.90
3051;DHT22;1535;51.098;6.414;2022-09-17T04:12:06;9.20;99.90
3051;DHT22;1535;51.098;6.414;2022-09-17T04:14:32;9.20;99.90
3051;DHT22;1535;51.098;6.414;2022-09-17T04:16:59;9.20;99.90
3051;DHT22;1535;51.098;6.414;2022-09-17T04:19:26;9.20;99.90
3051;DHT22;1535;51.098;6.414;2022-09-17T04:21:56;9.20;99.90
3051;DHT22;1535;51.098;6.414;2022-09-17T04:24:24;9.20;99.90
3051;DHT22;1535;51.098;6.414;2022-09-17T04:26:51;9.20;99.90
3051;DHT22;1535;51.098;6.414;2022-09-17T04:29:19;9.30;99.90
3051;DHT22;1535;51.098;6.414;2022-09-17T04:31:47;9.40;99.90
3051;DHT22;1535;51.098;6.414;2022-09-17T04:34:14;9.50;99.90
3051;DHT22;1535;51.098;6.414;2022-09-17T04:36:42;9.60;99.90
3051;DHT22;1535;51.098;6.414;2022-09-17T04:39:08;9.60;99.90
3051;DHT22;1535;51.098;6.414;2022-09-17T04:41:35;9.80;99.90
3051;DHT22;1535;51.098;6.414;2022-09-17T04:44:03;9.80;99.90
3051;DHT22;1535;51.098;6.414;2022-09-17T04:46:31;9.80;99.90
3051;DHT22;1535;51.098;6.414;2022-09-17T04:48:58;9.70;99.90
3051;DHT22;1535;51.098;6.414;2022-09-17T04:51:25;9.70;99.90
3051;DHT22;1535;51.098;6.414;2022-09-17T04:53:53;9.60;99.90
3051;DHT22;1535;51.098;6.414;2022-09-17T04:56:20;9.50;99.90
3051;DHT22;1535;51.098;6.414;2022-09-17T04:58:47;9.50;99.90
3051;DHT22;1535;51.098;6.414;2022-09-17T05:01:14;9.50;99.90
3051;DHT22;1535;51.098;6.414;2022-09-17T05:03:44;9.50;99.90
3051;DHT22;1535;51.098;6.414;2022-09-17T05:06:12;9.40;99.90
3051;DHT22;1535;51.098;6.414;2022-09-17T05:08:38;9.50;99.90
3051;DHT22;1535;51.098;6.414;2022-09-17T05:11:06;9.50;99.90
3051;DHT22;1535;51.098;6.414;2022-09-17T05:13:33;9.60;99.90
3051;DHT22;1535;51.098;6.414;2022-09-17T05:16:00;9.60;99.90
3051;DHT22;1535;51.098;6.414;2022-09-17T05:18:28;9.60;99.90
3051;DHT22;1535;51.098;6.414;2022-09-17T05:20:56;9.70;99.90
3051;DHT22;1535;51.098;6.414;2022-09-17T05:23:24;9.70;99.90
3051;DHT22;1535;51.098;6.414;2022-09-17T05:25:52;9.80;99.90
3051;DHT22;1535;51.098;6.414;2022-09-17T05:28:24;9.70;99.90
3051;DHT22;1535;51.098;6.414;2022-09-17T05:30:50;9.80;99.90
3051;DHT22;1535;51.098;6.414;2022-09-17T05:33:17;9.90;99.90
3051;DHT22;1535;51.098;6.414;2022-09-17T05:35:45;10.00;99.90
3051;DHT22;1535;51.098;6.414;2022-09-17T05:38:16;10.10;99.90
3051;DHT22;1535;51.098;6.414;2022-09-17T05:40:43;10.20;99.90
3051;DHT22;1535;51.098;6.414;2022-09-17T05:43:10;10.30;99.90
3051;DHT22;1535;51.098;6.414;2022-09-17T05:45:38;10.40;99.90
3051;DHT22;1535;51.098;6.414;2022-09-17T05:48:08;10.40;99.90
3051;DHT22;1535;51.098;6.414;2022-09-17T05:50:35;10.50;99.90
3051;DHT22;1535;51.098;6.414;2022-09-17T05:53:04;10.50;99.90
3051;DHT22;1535;51.098;6.414;2022-09-17T05:55:33;10.50;99.90
3051;DHT22;1535;51.098;6.414;2022-09-17T05:58:08;10.40;99.90
3051;DHT22;1535;51.098;6.414;2022-09-17T06:00:37;10.40;99.90
3051;DHT22;1535;51.098;6.414;2022-09-17T06:03:04;10.40;99.90
3051;DHT22;1535;51.098;6.414;2022-09-17T06:05:31;10.40;99.90
3051;DHT22;1535;51.098;6.414;2022-09-17T06:07:58;10.30;99.90
3051;DHT22;1535;51.098;6.414;2022-09-17T06:10:25;10.20;99.90
3051;DHT22;1535;51.098;6.414;2022-09-17T06:12:58;10.20;99.90
3051;DHT22;1535;51.098;6.414;2022-09-17T06:15:26;10.20;99.90
3051;DHT22;1535;51.098;6.414;2022-09-17T06:17:53;10.20;99.90
3051;DHT22;1535;51.098;6.414;2022-09-17T06:20:21;10.20;99.90
3051;DHT22;1535;51.098;6.414;2022-09-17T06:22:48;10.10;99.90
3051;DHT22;1535;51.098;6.414;2022-09-17T06:25:21;10.10;99.90
3051;DHT22;1535;51.098;6.414;2022-09-17T06:27:50;10.10;99.90
3051;DHT22;1535;51.098;6.414;2022-09-17T06:30:18;10.00;99.90
3051;DHT22;1535;51.098;6.414;2022-09-17T06:32:45;10.10;99.90
3051;DHT22;1535;51.098;6.414;2022-09-17T06:35:12;10.20;99.90
3051;DHT22;1535;51.098;6.414;2022-09-17T06:37:40;10.30;99.90
3051;DHT22;1535;51.098;6.414;2022-09-17T06:40:08;10.40;99.90
3051;DHT22;1535;51.098;6.414;2022-09-17T06:42:35;10.60;99.90
3051;DHT22;1535;51.098;6.414;2022-09-17T06:45:02;10.60;99.90
3051;DHT22;1535;51.098;6.414;2022-09-17T06:47:31;10.70;99.90
3051;DHT22;1535;51.098;6.414;2022-09-17T06:49:58;10.70;99.90
3051;DHT22;1535;51.098;6.414;2022-09-17T06:52:26;10.60;99.90
3051;DHT22;1535;51.098;6.414;2022-09-17T06:54:53;10.60;99.90
3051;DHT22;1535;51.098;6.414;2022-09-17T06:57:20;10.70;99.90
3051;DHT22;1535;51.098;6.414;2022-09-17T06:59:48;10.80;99.90
3051;DHT22;1535;51.098;6.414;2022-09-17T07:02:16;10.80;99.90
3051;DHT22;1535;51.098;6.414;2022-09-17T07:04:45;10.90;99.90
3051;DHT22;1535;51.098;6.414;2022-09-17T07:07:13;11.00;99.90
3051;DHT22;1535;51.098;6.414;2022-09-17T07:09:40;11.20;99.90
3051;DHT22;1535;51.098;6.414;2022-09-17T07:12:08;11.20;99.90
3051;DHT22;1535;51.098;6.414;2022-09-17T07:14:34;11.30;99.90
3051;DHT22;1535;51.098;6.414;2022-09-17T07:17:01;11.30;99.90
3051;DHT22;1535;51.098;6.414;2022-09-17T07:19:29;11.50;99.90
3051;DHT22;1535;51.098;6.414;2022-09-17T07:21:57;11.60;99.90
3051;DHT22;1535;51.098;6.414;2022-09-17T07:24:24;11.70;99.90
3051;DHT22;1535;51.098;6.414;2022-09-17T07:26:51;11.90;99.90
3051;DHT22;1535;51.098;6.414;2022-09-17T07:29:18;12.10;99.90
3051;DHT22;1535;51.098;6.414;2022-09-17T07:31:46;12.30;99.90
3051;DHT22;1535;51.098;6.414;2022-09-17T07:34:12;12.50;99.90
3051;DHT22;1535;51.098;6.414;2022-09-17T07:36:39;12.50;99.90
3051;DHT22;1535;51.098;6.414;2022-09-17T07:39:08;12.60;99.90
3051;DHT22;1535;51.098;6.414;2022-09-17T07:41:36;12.60;99.90
3051;DHT22;1535;51.098;6.414;2022-09-17T07:44:04;12.50;99.90
3051;DHT22;1535;51.098;6.414;2022-09-17T07:46:33;12.60;99.90
3051;DHT22;1535;51.098;6.414;2022-09-17T07:48:59;12.60;99.90
3051;DHT22;1535;51.098;6.414;2022-09-17T07:51:27;12.70;99.90
3051;DHT22;1535;51.098;6.414;2022-09-17T07:53:55;12.60;99.90
3051;DHT22;1535;51.098;6.414;2022-09-17T07:56:24;12.80;99.90
3051;DHT22;1535;51.098;6.414;2022-09-17T07:58:51;12.80;99.90
3051;DHT22;1535;51.098;6.414;2022-09-17T08:01:19;12.90;99.90
3051;DHT22;1535;51.098;6.414;2022-09-17T08:03:48;12.90;99.90
3051;DHT22;1535;51.098;6.414;2022-09-17T08:06:16;13.20;99.90
3051;DHT22;1535;51.098;6.414;2022-09-17T08:08:44;13.50;99.90
3051;DHT22;1535;51.098;6.414;2022-09-17T08:11:12;13.50;99.90
3051;DHT22;1535;51.098;6.414;2022-09-17T08:13:42;13.70;99.90
3051;DHT22;1535;51.098;6.414;2022-09-17T08:16:11;13.70;99.90
3051;DHT22;1535;51.098;6.414;2022-09-17T08:18:39;13.80;99.90
3051;DHT22;1535;51.098;6.414;2022-09-17T08:21:08;13.90;99.90
3051;DHT22;1535;51.098;6.414;2022-09-17T08:23:37;14.10;99.90
3051;DHT22;1535;51.098;6.414;2022-09-17T08:26:05;14.30;99.90
3051;DHT22;1535;51.098;6.414;2022-09-17T08:28:33;14.40;99.90
3051;DHT22;1535;51.098;6.414;2022-09-17T08:31:04;14.50;99.90
3051;DHT22;1535;51.098;6.414;2022-09-17T08:33:31;14.60;99.90
3051;DHT22;1535;51.098;6.414;2022-09-17T08:35:59;14.80;99.90
3051;DHT22;1535;51.098;6.414;2022-09-17T08:38:27;14.70;99.90
3051;DHT22;1535;51.098;6.414;2022-09-17T08:41:00;14.80;99.90
3051;DHT22;1535;51.098;6.414;2022-09-17T08:43:29;15.00;99.90
3051;DHT22;1535;51.098;6.414;2022-09-17T08:45:58;14.90;99.90
3051;DHT22;1535;51.098;6.414;2022-09-17T08:48:41;14.90;99.90
3051;DHT22;1535;51.098;6.414;2022-09-17T08:51:14;14.80;99.90
3051;DHT22;1535;51.098;6.414;2022-09-17T08:53:56;14.70;99.90
3051;DHT22;1535;51.098;6.414;2022-09-17T08:56:26;14.90;99.90
3051;DHT22;1535;51.098;6.414;2022-09-17T08:59:08;14.90;99.90
3051;DHT22;1535;51.098;6.414;2022-09-17T09:01:46;14.50;99.90
3051;DHT22;1535;51.098;6.414;2022-09-17T09:04:42;14.40;99.90
3051;DHT22;1535;51.098;6.414;2022-09-17T09:07:14;14.30;99.90
3051;DHT22;1535;51.098;6.414;2022-09-17T09:09:46;14.40;99.90
3051;DHT22;1535;51.098;6.414;2022-09-17T09:12:22;14.50;99.90
3051;DHT22;1535;51.098;6.414;2022-09-17T09:14:52;14.70;99.90
3051;DHT22;1535;51.098;6.414;2022-09-17T09:17:24;14.80;99.90
3051;DHT22;1535;51.098;6.414;2022-09-17T09:19:56;15.00;99.90
3051;DHT22;1535;51.098;6.414;2022-09-17T09:22:32;15.20;99.90
3051;DHT22;1535;51.098;6.414;2022-09-17T09:25:08;15.60;99.90
3051;DHT22;1535;51.098;6.414;2022-09-17T09:27:42;15.70;99.90
3051;DHT22;1535;51.098;6.414;2022-09-17T09:30:13;15.80;99.90
3051;DHT22;1535;51.098;6.414;2022-09-17T09:32:50;15.80;99.90
3051;DHT22;1535;51.098;6.414;2022-09-17T09:35:25;15.60;99.90
3051;DHT22;1535;51.098;6.414;2022-09-17T09:37:58;15.40;99.90
3051;DHT22;1535;51.098;6.414;2022-09-17T09:40:36;16.10;99.90
3051;DHT22;1535;51.098;6.414;2022-09-17T09:43:13;16.40;99.90
3051;DHT22;1535;51.098;6.414;2022-09-17T09:46:02;16.30;99.90
3051;DHT22;1535;51.098;6.414;2022-09-17T09:48:37;16.60;99.90
3051;DHT22;1535;51.098;6.414;2022-09-17T09:51:24;16.60;99.90
3051;DHT22;1535;51.098;6.414;2022-09-17T09:54:08;16.50;99.90
3051;DHT22;1535;51.098;6.414;2022-09-17T09:56:50;16.30;99.90
3051;DHT22;1535;51.098;6.414;2022-09-17T09:59:19;16.10;99.90
3051;DHT22;1535;51.098;6.414;2022-09-17T10:01:46;16.00;99.90
3051;DHT22;1535;51.098;6.414;2022-09-17T10:04:19;16.30;99.90
3051;DHT22;1535;51.098;6.414;2022-09-17T10:06:49;16.40;99.90
3051;DHT22;1535;51.098;6.414;2022-09-17T10:09:18;16.40;99.90
3051;DHT22;1535;51.098;6.414;2022-09-17T10:11:59;16.80;99.90
3051;DHT22;1535;51.098;6.414;2022-09-17T10:14:28;17.10;99.90
3051;DHT22;1535;51.098;6.414;2022-09-17T10:17:15;16.90;99.90
3051;DHT22;1535;51.098;6.414;2022-09-17T10:19:43;16.50;99.90
3051;DHT22;1535;51.098;6.414;2022-09-17T10:22:25;16.40;99.90
3051;DHT22;1535;51.098;6.414;2022-09-17T10:24:56;16.60;99.90
3051;DHT22;1535;51.098;6.414;2022-09-17T10:27:23;16.90;99.90
3051;DHT22;1535;51.098;6.414;2022-09-17T10:29:57;17.50;99.90
3051;DHT22;1535;51.098;6.414;2022-09-17T10:32:28;18.00;99.90
3051;DHT22;1535;51.098;6.414;2022-09-17T10:35:00;18.20;99.90
3051;DHT22;1535;51.098;6.414;2022-09-17T10:37:42;18.20;99.90
3051;DHT22;1535;51.098;6.414;2022-09-17T10:40:26;18.20;99.90
3051;DHT22;1535;51.098;6.414;2022-09-17T10:43:15;18.30;99.90
3051;DHT22;1535;51.098;6.414;2022-09-17T10:45:44;18.60;99.90
3051;DHT22;1535;51.098;6.414;2022-09-17T10:48:20;18.90;99.90
3051;DHT22;1535;51.098;6.414;2022-09-17T10:50:48;19.00;99.90
3051;DHT22;1535;51.098;6.414;2022-09-17T10:53:19;18.60;99.90
3051;DHT22;1535;51.098;6.414;2022-09-17T10:55:50;18.00;99.90
3051;DHT22;1535;51.098;6.414;2022-09-17T10:58:28;17.20;99.90
3051;DHT22;1535;51.098;6.414;2022-09-17T11:01:04;14.80;99.90
3051;DHT22;1535;51.098;6.414;2022-09-17T11:03:48;13.30;99.90
3051;DHT22;1535;51.098;6.414;2022-09-17T11:06:33;12.60;99.90
3051;DHT22;1535;51.098;6.414;2022-09-17T11:09:15;12.40;99.90
3051;DHT22;1535;51.098;6.414;2022-09-17T11:11:53;12.30;99.90
3051;DHT22;1535;51.098;6.414;2022-09-17T11:14:35;12.20;99.90
3051;DHT22;1535;51.098;6.414;2022-09-17T11:17:12;12.20;99.90
3051;DHT22;1535;51.098;6.414;2022-09-17T11:19:49;12.50;99.90
3051;DHT22;1535;51.098;6.414;2022-09-17T11:22:29;13.00;99.90
3051;DHT22;1535;51.098;6.414;2022-09-17T11:25:20;13.60;99.90
3051;DHT22;1535;51.098;6.414;2022-09-17T11:28:03;14.60;99.90
3051;DHT22;1535;51.098;6.414;2022-09-17T11:30:42;15.50;99.90
3051;DHT22;1535;51.098;6.414;2022-09-17T11:33:24;15.80;99.90
3051;DHT22;1535;51.098;6.414;2022-09-17T11:35:57;15.90;99.90
3051;DHT22;1535;51.098;6.414;2022-09-17T11:38:29;15.50;99.90
3051;DHT22;1535;51.098;6.414;2022-09-17T11:41:05;15.20;99.90
3051;DHT22;1535;51.098;6.414;2022-09-17T11:43:35;16.20;99.90
3051;DHT22;1535;51.098;6.414;2022-09-17T11:46:07;17.10;99.90
3051;DHT22;1535;51.098;6.414;2022-09-17T11:48:38;17.00;99.90
3051;DHT22;1535;51.098;6.414;2022-09-17T11:51:19;16.50;99.90
3051;DHT22;1535;51.098;6.414;2022-09-17T11:53:49;17.00;99.90
3051;DHT22;1535;51.098;6.414;2022-09-17T11:56:23;17.30;99.90
3051;DHT22;1535;51.098;6.414;2022-09-17T11:58:54;17.70;99.90
3051;DHT22;1535;51.098;6.414;2022-09-17T12:01:29;17.50;99.90
3051;DHT22;1535;51.098;6.414;2022-09-17T12:03:58;17.50;99.90
3051;DHT22;1535;51.098;6.414;2022-09-17T12:06:34;17.80;99.90
3051;DHT22;1535;51.098;6.414;2022-09-17T12:09:08;17.90;99.90
3051;DHT22;1535;51.098;6.414;2022-09-17T12:11:40;18.10;99.90
3051;DHT22;1535;51.098;6.414;2022-09-17T12:14:16;18.40;99.90
3051;DHT22;1535;51.098;6.414;2022-09-17T12:16:49;18.80;99.90
3051;DHT22;1535;51.098;6.414;2022-09-17T12:19:22;18.70;99.90
3051;DHT22;1535;51.098;6.414;2022-09-17T12:21:53;18.80;99.90
3051;DHT22;1535;51.098;6.414;2022-09-17T12:24:24;18.20;99.90
3051;DHT22;1535;51.098;6.414;2022-09-17T12:27:14;17.60;99.90
3051;DHT22;1535;51.098;6.414;2022-09-17T12:30:09;17.50;99.90
3051;DHT22;1535;51.098;6.414;2022-09-17T12:32:56;17.50;99.90
3051;DHT22;1535;51.098;6.414;2022-09-17T12:35:37;17.50;99.90
3051;DHT22;1535;51.098;6.414;2022-09-17T12:38:19;16.90;99.90
3051;DHT22;1535;51.098;6.414;2022-09-17T12:40:57;16.50;99.90
3051;DHT22;1535;51.098;6.414;2022-09-17T12:43:50;16.20;99.90
3051;DHT22;1535;51.098;6.414;2022-09-17T12:46:33;15.90;99.90
3051;DHT22;1535;51.098;6.414;2022-09-17T12:49:18;16.90;99.90
3051;DHT22;1535;51.098;6.414;2022-09-17T12:51:53;17.80;99.90
3051;DHT22;1535;51.098;6.414;2022-09-17T12:54:44;18.50;99.90
3051;DHT22;1535;51.098;6.414;2022-09-17T12:57:23;19.00;99.90
3051;DHT22;1535;51.098;6.414;2022-09-17T12:59:57;18.90;99.90
3051;DHT22;1535;51.098;6.414;2022-09-17T13:02:31;19.10;99.90
3051;DHT22;1535;51.098;6.414;2022-09-17T13:05:21;19.30;99.90
3051;DHT22;1535;51.098;6.414;2022-09-17T13:08:00;19.20;99.90
3051;DHT22;1535;51.098;6.414;2022-09-17T13:10:40;18.70;99.90
3051;DHT22;1535;51.098;6.414;2022-09-17T13:13:30;18.70;99.90
3051;DHT22;1535;51.098;6.414;2022-09-17T13:16:07;19.30;99.90
3051;DHT22;1535;51.098;6.414;2022-09-17T13:18:39;18.90;99.90
3051;DHT22;1535;51.098;6.414;2022-09-17T13:21:10;19.00;99.90
3051;DHT22;1535;51.098;6.414;2022-09-17T13:23:41;18.80;99.90
3051;DHT22;1535;51.098;6.414;2022-09-17T13:26:11;19.30;99.90
3051;DHT22;1535;51.098;6.414;2022-09-17T13:28:42;19.70;99.90
3051;DHT22;1535;51.098;6.414;2022-09-17T13:31:11;19.90;99.90
3051;DHT22;1535;51.098;6.414;2022-09-17T13:33:53;20.30;99.90
3051;DHT22;1535;51.098;6.414;2022-09-17T13:36:50;20.60;99.90
3051;DHT22;1535;51.098;6.414;2022-09-17T13:39:43;20.70;99.90
3051;DHT22;1535;51.098;6.414;2022-09-17T13:42:18;20.60;99.90
3051;DHT22;1535;51.098;6.414;2022-09-17T13:44:48;20.10;99.90
3051;DHT22;1535;51.098;6.414;2022-09-17T13:47:34;19.90;99.90
3051;DHT22;1535;51.098;6.414;2022-09-17T13:50:06;18.60;99.90
3051;DHT22;1535;51.098;6.414;2022-09-17T13:52:37;18.00;99.90
3051;DHT22;1535;51.098;6.414;2022-09-17T13:55:06;17.70;99.90
3051;DHT22;1535;51.098;6.414;2022-09-17T13:57:45;17.20;99.90
3051;DHT22;1535;51.098;6.414;2022-09-17T14:00:52;16.10;99.90
3051;DHT22;1535;51.098;6.414;2022-09-17T14:03:53;15.20;99.90
3051;DHT22;1535;51.098;6.414;2022-09-17T14:06:50;14.10;99.90
3051;DHT22;1535;51.098;6.414;2022-09-17T14:09:48;14.00;99.90
3051;DHT22;1535;51.098;6.414;2022-09-17T14:12:50;15.00;99.90
3051;DHT22;1535;51.098;6.414;2022-09-17T14:15:57;15.40;99.90
3051;DHT22;1535;51.098;6.414;2022-09-17T14:18:44;15.30;99.90
3051;DHT22;1535;51.098;6.414;2022-09-17T14:21:23;16.00;99.90
3051;DHT22;1535;51.098;6.414;2022-09-17T14:23:55;16.60;99.90
3051;DHT22;1535;51.098;6.414;2022-09-17T14:26:35;16.40;99.90
3051;DHT22;1535;51.098;6.414;2022-09-17T14:29:14;16.60;99.90
3051;DHT22;1535;51.098;6.414;2022-09-17T14:31:44;17.20;99.90
3051;DHT22;1535;51.098;6.414;2022-09-17T14:34:17;17.10;99.90
3051;DHT22;1535;51.098;6.414;2022-09-17T14:36:48;16.90;99.90
3051;DHT22;1535;51.098;6.414;2022-09-17T14:39:21;17.00;99.90
3051;DHT22;1535;51.098;6.414;2022-09-17T14:41:49;16.70;99.90
3051;DHT22;1535;51.098;6.414;2022-09-17T14:44:18;16.50;99.90
3051;DHT22;1535;51.098;6.414;2022-09-17T14:46:51;16.20;99.90
3051;DHT22;1535;51.098;6.414;2022-09-17T14:49:20;16.30;99.90
3051;DHT22;1535;51.098;6.414;2022-09-17T14:51:50;17.00;99.90
3051;DHT22;1535;51.098;6.414;2022-09-17T14:54:21;17.30;99.90
3051;DHT22;1535;51.098;6.414;2022-09-17T14:56:56;17.60;99.90
3051;DHT22;1535;51.098;6.414;2022-09-17T14:59:42;17.50;99.90
3051;DHT22;1535;51.098;6.414;2022-09-17T15:02:35;17.30;99.90
3051;DHT22;1535;51.098;6.414;2022-09-17T15:05:23;17.40;99.90
3051;DHT22;1535;51.098;6.414;2022-09-17T15:08:04;17.80;99.90
3051;DHT22;1535;51.098;6.414;2022-09-17T15:10:33;17.60;99.90
3051;DHT22;1535;51.098;6.414;2022-09-17T15:13:01;17.10;99.90
3051;DHT22;1535;51.098;6.414;2022-09-17T15:15:28;17.00;99.90
3051;DHT22;1535;51.098;6.414;2022-09-17T15:17:55;17.00;99.90
3051;DHT22;1535;51.098;6.414;2022-09-17T15:20:27;16.30;99.90
3051;DHT22;1535;51.098;6.414;2022-09-17T15:23:05;15.60;99.90
3051;DHT22;1535;51.098;6.414;2022-09-17T15:25:33;15.60;99.90
3051;DHT22;1535;51.098;6.414;2022-09-17T15:28:07;16.30;99.90
3051;DHT22;1535;51.098;6.414;2022-09-17T15:30:38;17.00;99.90
3051;DHT22;1535;51.098;6.414;2022-09-17T15:33:08;17.40;99.90
3051;DHT22;1535;51.098;6.414;2022-09-17T15:35:36;16.90;99.90
3051;DHT22;1535;51.098;6.414;2022-09-17T15:38:20;17.20;99.90
3051;DHT22;1535;51.098;6.414;2022-09-17T15:40:48;17.20;99.90
3051;DHT22;1535;51.098;6.414;2022-09-17T15:43:20;16.50;99.90
3051;DHT22;1535;51.098;6.414;2022-09-17T15:45:47;16.50;99.90
3051;DHT22;1535;51.098;6.414;2022-09-17T15:48:31;16.60;99.90
3051;DHT22;1535;51.098;6.414;2022-09-17T15:51:01;16.90;99.90
3051;DHT22;1535;51.098;6.414;2022-09-17T15:53:31;17.30;99.90
3051;DHT22;1535;51.098;6.414;2022-09-17T15:56:00;17.30;99.90
3051;DHT22;1535;51.098;6.414;2022-09-17T15:58:30;17.40;99.90
3051;DHT22;1535;51.098;6.414;2022-09-17T16:04:09;16.60;99.90
3051;DHT22;1535;51.098;6.414;2022-09-17T16:06:47;16.40;99.90
3051;DHT22;1535;51.098;6.414;2022-09-17T16:09:42;16.70;99.90
3051;DHT22;1535;51.098;6.414;2022-09-17T16:12:11;17.00;99.90
3051;DHT22;1535;51.098;6.414;2022-09-17T16:14:45;17.30;99.90
3051;DHT22;1535;51.098;6.414;2022-09-17T16:17:30;17.20;99.90
3051;DHT22;1535;51.098;6.414;2022-09-17T16:20:17;17.30;99.90
3051;DHT22;1535;51.098;6.414;2022-09-17T16:22:44;17.70;99.90
3051;DHT22;1535;51.098;6.414;2022-09-17T16:25:14;17.90;99.90
3051;DHT22;1535;51.098;6.414;2022-09-17T16:27:48;17.60;99.90
3051;DHT22;1535;51.098;6.414;2022-09-17T16:30:17;17.20;99.90
3051;DHT22;1535;51.098;6.414;2022-09-17T16:32:44;16.90;99.90
3051;DHT22;1535;51.098;6.414;2022-09-17T16:35:12;16.40;99.90
3051;DHT22;1535;51.098;6.414;2022-09-17T16:37:39;16.00;99.90
3051;DHT22;1535;51.098;6.414;2022-09-17T16:40:10;15.70;99.90
3051;DHT22;1535;51.098;6.414;2022-09-17T16:42:39;15.40;99.90
3051;DHT22;1535;51.098;6.414;2022-09-17T16:45:07;15.10;99.90
3051;DHT22;1535;51.098;6.414;2022-09-17T16:47:34;14.80;99.90
3051;DHT22;1535;51.098;6.414;2022-09-17T16:50:04;14.50;99.90
3051;DHT22;1535;51.098;6.414;2022-09-17T16:52:32;14.40;99.90